createdAt,value
2024-01-05T00:00:43.578Z,99572.38
2024-01-05T00:04:16.378Z,99580.37
2024-01-05T00:07:43.042Z,99578.65
2024-01-05T00:11:09.561Z,99582.04
2024-01-05T00:14:38.208Z,99586.14
2024-01-05T00:18:04.584Z,99593.16
2024-01-05T00:21:31.298Z,99598.48
2024-01-05T00:24:58.054Z,99609.94
2024-01-05T00:28:24.830Z,99610.77
2024-01-05T00:31:50.859Z,99614.52
2024-01-05T00:35:17.398Z,99624.23
2024-01-05T00:38:48.989Z,99626.16
2024-01-05T00:42:15.527Z,99627.61
2024-01-05T00:45:43.751Z,99626.26
2024-01-05T00:49:09.922Z,99628.16
2024-01-05T00:52:36.359Z,99632.14
2024-01-05T00:56:05.975Z,99638.45
2024-01-05T00:59:31.688Z,99644.77
2024-01-05T01:02:57.997Z,99648.52
2024-01-05T01:06:27.618Z,99649.70
2024-01-05T01:09:53.575Z,99648.44
2024-01-05T01:13:20.126Z,99656.58
2024-01-05T01:16:46.241Z,99661.30
2024-01-05T01:20:13.634Z,99665.80
2024-01-05T01:23:42.518Z,99674.20
2024-01-05T01:27:08.478Z,99674.09
2024-01-05T01:30:34.738Z,99672.85
2024-01-05T01:34:01.276Z,99677.07
2024-01-05T01:37:27.204Z,99676.80
2024-01-05T01:40:56.850Z,99682.96
2024-01-05T01:44:22.941Z,99681.79
2024-01-05T01:47:50.638Z,99680.51
2024-01-05T01:51:16.670Z,99679.06
2024-01-05T01:54:43.297Z,99686.61
2024-01-05T01:58:09.887Z,99686.02
2024-01-05T02:01:36.615Z,99691.36
2024-01-05T02:05:02.832Z,99693.65
2024-01-05T02:08:29.455Z,99692.37
2024-01-05T02:11:55.352Z,99689.73
2024-01-05T02:15:21.316Z,99689.44
2024-01-05T02:18:54.399Z,99692.74
2024-01-05T02:22:22.220Z,99695.50
2024-01-05T02:25:48.975Z,99695.51
2024-01-05T02:29:15.560Z,99701.15
2024-01-05T02:32:42.015Z,99702.73
2024-01-05T02:36:08.744Z,99702.91
2024-01-05T02:39:34.740Z,99706.02
2024-01-05T02:43:03.312Z,99712.30
2024-01-05T02:46:29.562Z,99714.64
2024-01-05T02:49:56.013Z,99716.11
2024-01-05T02:53:22.216Z,99716.85
2024-01-05T02:56:48.323Z,99715.70
2024-01-05T03:00:15.569Z,99722.41
2024-01-05T03:03:42.864Z,99728.32
2024-01-05T03:07:08.936Z,99727.71
2024-01-05T03:10:35.764Z,99732.47
2024-01-05T03:14:02.227Z,99726.17
2024-01-05T03:17:28.524Z,99730.13
2024-01-05T03:20:54.704Z,99729.18
2024-01-05T03:24:20.823Z,99728.70
2024-01-05T03:27:47.136Z,99735.28
2024-01-05T03:31:16.146Z,99733.17
2024-01-05T03:34:42.434Z,99728.84
2024-01-05T03:38:08.628Z,99722.48
2024-01-05T03:41:35.050Z,99717.65
2024-01-05T03:45:01.057Z,99723.85
2024-01-05T03:48:28.277Z,99730.92
2024-01-05T03:51:54.675Z,99732.86
2024-01-05T03:55:20.713Z,99737.36
2024-01-05T03:58:46.749Z,99744.09
2024-01-05T04:02:13.075Z,99742.45
2024-01-05T04:05:39.210Z,99741.50
2024-01-05T04:09:05.467Z,99746.86
2024-01-05T04:12:31.555Z,99747.75
2024-01-05T04:15:57.817Z,99752.58
2024-01-05T04:19:24.332Z,99758.58
2024-01-05T04:22:50.494Z,99758.23
2024-01-05T04:26:17.031Z,99754.85
2024-01-05T04:29:43.906Z,99762.46
2024-01-05T04:33:10.134Z,99760.90
2024-01-05T04:36:36.436Z,99758.27
2024-01-05T04:40:02.789Z,99757.16
2024-01-05T04:43:28.921Z,99758.08
2024-01-05T04:46:55.257Z,99766.19
2024-01-05T04:50:21.080Z,99769.70
2024-01-05T04:53:47.934Z,99769.13
2024-01-05T04:57:14.288Z,99769.45
2024-01-05T05:00:40.754Z,99767.27
2024-01-05T05:04:07.323Z,99764.73
2024-01-05T05:07:33.900Z,99767.13
2024-01-05T05:10:59.721Z,99769.87
2024-01-05T05:14:25.479Z,99773.80
2024-01-05T05:17:54.769Z,99776.20
2024-01-05T05:21:21.419Z,99778.41
2024-01-05T05:24:47.336Z,99776.23
2024-01-05T05:28:13.670Z,99784.27
2024-01-05T05:31:39.849Z,99792.48
2024-01-05T05:35:07.856Z,99796.25
2024-01-05T05:38:33.937Z,99806.02
2024-01-05T05:42:00.275Z,99807.92
2024-01-05T05:45:27.840Z,99805.92
2024-01-05T05:48:54.522Z,99808.66
2024-01-05T05:52:20.953Z,99805.44
2024-01-05T05:55:47.031Z,99807.63
2024-01-05T05:59:13.066Z,99812.17
2024-01-05T06:02:39.415Z,99814.68
2024-01-05T06:06:06.933Z,99817.14
2024-01-05T06:09:33.183Z,99822.32
2024-01-05T06:12:59.437Z,99828.33
2024-01-05T06:16:25.772Z,99829.77
2024-01-05T06:19:52.164Z,99837.03
2024-01-05T06:23:18.191Z,99841.05
2024-01-05T06:26:46.629Z,99846.81
2024-01-05T06:30:13.895Z,99848.30
2024-01-05T06:33:41.450Z,99849.98
2024-01-05T06:37:08.206Z,99856.29
2024-01-05T06:40:34.349Z,99860.21
2024-01-05T06:44:00.264Z,99860.23
2024-01-05T06:47:28.653Z,99862.30
2024-01-05T06:50:57.138Z,99865.57
2024-01-05T06:54:23.270Z,99868.33
2024-01-05T06:57:50.422Z,99872.45
2024-01-05T07:01:19.100Z,99877.92
2024-01-05T07:04:45.872Z,99879.48
2024-01-05T07:08:12.828Z,99877.09
2024-01-05T07:11:38.804Z,99869.77
2024-01-05T07:15:06.360Z,99867.70
2024-01-05T07:18:33.571Z,99871.41
2024-01-05T07:21:59.603Z,99867.61
2024-01-05T07:25:27.387Z,99865.83
2024-01-05T07:28:54.945Z,99867.45
2024-01-05T07:32:21.378Z,99869.04
2024-01-05T07:35:47.476Z,99871.50
2024-01-05T07:39:16.619Z,99873.75
2024-01-05T07:42:43.254Z,99875.54
2024-01-05T07:46:09.407Z,99874.62
2024-01-05T07:49:35.757Z,99880.88
2024-01-05T07:53:02.278Z,99880.52
2024-01-05T07:56:29.114Z,99883.77
2024-01-05T07:59:55.146Z,99884.11
2024-01-05T08:03:22.999Z,99882.27
2024-01-05T08:06:52.044Z,99878.38
2024-01-05T08:10:18.782Z,99868.36
2024-01-05T08:13:45.037Z,99867.68
2024-01-05T08:17:10.988Z,99866.67
2024-01-05T08:20:37.784Z,99865.86
2024-01-05T08:24:07.403Z,99871.51
2024-01-05T08:27:33.489Z,99881.23
2024-01-05T08:30:59.964Z,99884.29
2024-01-05T08:34:29.192Z,99894.52
2024-01-05T08:37:55.329Z,99892.42
2024-01-05T08:41:21.389Z,99896.28
2024-01-05T08:44:47.227Z,99905.07
2024-01-05T08:48:15.291Z,99906.83
2024-01-05T08:51:46.020Z,99910.20
2024-01-05T08:55:12.941Z,99915.27
2024-01-05T08:58:38.863Z,99920.38
2024-01-05T09:02:05.411Z,99922.23
2024-01-05T09:05:31.712Z,99926.67
2024-01-05T09:08:58.314Z,99929.09
2024-01-05T09:12:25.072Z,99937.71
2024-01-05T09:15:51.153Z,99940.09
2024-01-05T09:19:17.594Z,99944.84
2024-01-05T09:22:44.118Z,99945.98
2024-01-05T09:26:16.461Z,99943.63
2024-01-05T09:29:42.402Z,99941.48
2024-01-05T09:33:10.450Z,99948.29
2024-01-05T09:36:40.579Z,99947.85
2024-01-05T09:40:11.786Z,99946.60
2024-01-05T09:43:38.863Z,99945.95
2024-01-05T09:47:06.167Z,99943.77
2024-01-05T09:50:33.234Z,99950.00
2024-01-05T09:53:59.535Z,99956.06
2024-01-05T09:57:27.620Z,99960.64
2024-01-05T10:00:56.456Z,99958.73
2024-01-05T10:04:23.685Z,99960.95
2024-01-05T10:07:49.989Z,99968.92
2024-01-05T10:11:29.876Z,99975.92
2024-01-05T10:15:08.036Z,99975.86
2024-01-05T10:18:35.808Z,99976.67
2024-01-05T10:22:12.781Z,99977.60
2024-01-05T10:25:41.898Z,99986.45
2024-01-05T10:29:17.321Z,99982.60
2024-01-05T10:32:43.205Z,99988.19
2024-01-05T10:36:10.760Z,99983.20
2024-01-05T10:39:37.744Z,99984.91
2024-01-05T10:43:14.710Z,99978.39
2024-01-05T10:46:43.554Z,99971.06
2024-01-05T10:50:11.693Z,99969.67
2024-01-05T10:53:38.867Z,99971.48
2024-01-05T10:57:08.328Z,99971.02
2024-01-05T11:00:36.815Z,99967.25
2024-01-05T11:04:05.700Z,99962.76
2024-01-05T11:07:36.414Z,99971.59
2024-01-05T11:11:22.901Z,99981.66
2024-01-05T11:15:09.071Z,99988.49
2024-01-05T11:18:58.015Z,99990.04
2024-01-05T11:22:29.834Z,99990.88
2024-01-05T11:25:56.985Z,99995.76
2024-01-05T11:29:51.845Z,99990.91
2024-01-05T11:33:47.829Z,99975.64
2024-01-05T11:37:13.854Z,99968.20
2024-01-05T11:40:40.277Z,99975.09
2024-01-05T11:44:06.731Z,99973.26
2024-01-05T11:47:49.606Z,99968.87
2024-01-05T11:51:16.240Z,99967.46
2024-01-05T11:54:42.562Z,99961.79
2024-01-05T11:58:11.618Z,99964.54
2024-01-05T12:01:37.691Z,99974.69
2024-01-05T12:05:04.495Z,99972.86
2024-01-05T12:08:32.424Z,99970.86
2024-01-05T12:12:18.996Z,99969.77
2024-01-05T12:15:59.118Z,99975.06
2024-01-05T12:19:28.181Z,99972.89
2024-01-05T12:22:56.455Z,99959.96
2024-01-05T12:26:23.110Z,99955.03
2024-01-05T12:29:50.456Z,99944.75
2024-01-05T12:33:16.796Z,99946.08
2024-01-05T12:36:44.689Z,99959.07
2024-01-05T12:40:13.438Z,99959.41
2024-01-05T12:43:40.304Z,99958.55
2024-01-05T12:47:07.158Z,99952.58
2024-01-05T12:50:33.395Z,99947.27
2024-01-05T12:54:04.942Z,99948.66
2024-01-05T12:57:33.367Z,99955.45
2024-01-05T13:01:04.524Z,99950.64
2024-01-05T13:04:39.956Z,99942.30
2024-01-05T13:08:08.430Z,99938.77
2024-01-05T13:11:34.536Z,99938.96
2024-01-05T13:15:00.920Z,99940.23
2024-01-05T13:18:26.890Z,99935.98
2024-01-05T13:21:53.703Z,99931.83
2024-01-05T13:25:20.770Z,99932.19
2024-01-05T13:28:47.071Z,99940.42
2024-01-05T13:32:13.376Z,99935.65
2024-01-05T13:35:39.546Z,99936.87
2024-01-05T13:39:07.411Z,99935.06
2024-01-05T13:42:33.258Z,99939.73
2024-01-05T13:46:00.513Z,99946.00
2024-01-05T13:49:27.304Z,99945.92
2024-01-05T13:52:53.401Z,99930.51
2024-01-05T13:56:20.441Z,99929.23
2024-01-05T13:59:46.898Z,99929.52
2024-01-05T14:03:12.985Z,99928.52
2024-01-05T14:06:39.145Z,99935.09
2024-01-05T14:10:06.894Z,99940.27
2024-01-05T14:13:34.170Z,99939.79
2024-01-05T14:16:59.899Z,99934.05
2024-01-05T14:20:26.141Z,99930.33
2024-01-05T14:23:52.281Z,99929.70
2024-01-05T14:27:19.096Z,99933.14
2024-01-05T14:30:48.148Z,99934.04
2024-01-05T14:34:15.133Z,99937.18
2024-01-05T14:37:41.816Z,99942.53
2024-01-05T14:41:08.200Z,99945.98
2024-01-05T14:44:34.542Z,99944.48
2024-01-05T14:48:01.240Z,99949.31
2024-01-05T14:51:31.090Z,99951.05
2024-01-05T14:54:58.366Z,99955.48
2024-01-05T14:58:24.569Z,99953.71
2024-01-05T15:01:50.816Z,99951.28
2024-01-05T15:05:17.471Z,99952.87
2024-01-05T15:08:43.886Z,99954.14
2024-01-05T15:12:10.829Z,99952.35
2024-01-05T15:15:39.684Z,99952.80
2024-01-05T15:19:07.224Z,99948.86
2024-01-05T15:22:33.843Z,99952.14
2024-01-05T15:25:59.783Z,99957.15
2024-01-05T15:29:26.506Z,99964.24
2024-01-05T15:32:53.013Z,99958.54
2024-01-05T15:36:20.488Z,99946.51
2024-01-05T15:39:46.441Z,99949.46
2024-01-05T15:43:16.023Z,99948.85
2024-01-05T15:46:42.924Z,99953.05
2024-01-05T15:50:13.674Z,99948.89
2024-01-05T15:53:40.118Z,99947.38
2024-01-05T15:57:07.443Z,99954.61
2024-01-05T16:00:33.465Z,99960.98
2024-01-05T16:04:00.231Z,99958.51
2024-01-05T16:07:26.573Z,99961.64
2024-01-05T16:10:52.952Z,99960.32
2024-01-05T16:14:19.402Z,99958.12
2024-01-05T16:17:48.298Z,99960.36
2024-01-05T16:21:20.932Z,99962.92
2024-01-05T16:24:46.865Z,99958.85
2024-01-05T16:28:13.212Z,99959.91
2024-01-05T16:31:39.399Z,99975.63
2024-01-05T16:35:06.046Z,99979.89
2024-01-05T16:38:32.225Z,99984.67
2024-01-05T16:41:59.606Z,99988.30
2024-01-05T16:45:26.039Z,99991.56
2024-01-05T16:48:54.656Z,99993.80
2024-01-05T16:52:21.307Z,99991.77
2024-01-05T16:55:47.547Z,100006.77
2024-01-05T16:59:14.251Z,100005.76
2024-01-05T17:02:42.252Z,99997.89
2024-01-05T17:06:19.200Z,99999.90
2024-01-05T17:09:47.638Z,99993.56
2024-01-05T17:13:13.752Z,99987.91
2024-01-05T17:16:43.323Z,99994.15
2024-01-05T17:20:21.131Z,99998.70
2024-01-05T17:23:56.080Z,100003.23
2024-01-05T17:27:22.498Z,100005.70
2024-01-05T17:30:48.996Z,100002.70
2024-01-05T17:34:16.511Z,100006.60
2024-01-05T17:37:43.133Z,100001.02
2024-01-05T17:41:09.319Z,99997.55
2024-01-05T17:44:38.912Z,100000.02
2024-01-05T17:48:05.605Z,100015.96
2024-01-05T17:51:40.025Z,100019.98
2024-01-05T17:55:07.074Z,100023.66
2024-01-05T17:58:33.386Z,100028.30
2024-01-05T18:01:59.349Z,100030.36
2024-01-05T18:05:26.567Z,100022.05
2024-01-05T18:08:52.697Z,100009.11
2024-01-05T18:12:18.754Z,99998.56
2024-01-05T18:15:45.024Z,99990.23
2024-01-05T18:19:12.232Z,99994.05
2024-01-05T18:22:38.373Z,99996.99
2024-01-05T18:26:05.105Z,99984.89
2024-01-05T18:29:31.749Z,99980.48
2024-01-05T18:32:58.336Z,99986.98
2024-01-05T18:36:25.381Z,99993.36
2024-01-05T18:39:51.685Z,99998.64
2024-01-05T18:43:17.619Z,100002.26
2024-01-05T18:46:43.324Z,100000.02
2024-01-05T18:50:11.148Z,99997.78
2024-01-05T18:53:37.132Z,99995.91
2024-01-05T18:57:03.244Z,99997.64
2024-01-05T19:00:30.636Z,99997.49
2024-01-05T19:03:56.696Z,99992.58
2024-01-05T19:07:22.655Z,99997.34
2024-01-05T19:10:49.040Z,100004.86
2024-01-05T19:14:15.167Z,100009.83
2024-01-05T19:17:43.902Z,100015.63
2024-01-05T19:21:10.430Z,100012.21
2024-01-05T19:24:37.406Z,100004.04
2024-01-05T19:28:03.178Z,100001.46
2024-01-05T19:31:30.906Z,100000.60
2024-01-05T19:34:59.595Z,99995.98
2024-01-05T19:38:25.878Z,99992.08
2024-01-05T19:41:52.083Z,99986.48
2024-01-05T19:45:18.399Z,99983.26
2024-01-05T19:48:45.167Z,99983.92
2024-01-05T19:52:12.259Z,99989.37
2024-01-05T19:55:38.904Z,100002.66
2024-01-05T19:59:08.087Z,100004.32
2024-01-05T20:02:34.335Z,100009.56
2024-01-05T20:06:01.985Z,100012.93
2024-01-05T20:09:29.817Z,100013.92
2024-01-05T20:12:56.448Z,100008.05
2024-01-05T20:16:27.548Z,100004.06
2024-01-05T20:19:54.190Z,100001.80
2024-01-05T20:23:21.900Z,100006.16
2024-01-05T20:26:47.915Z,100008.86
2024-01-05T20:30:15.926Z,100022.67
2024-01-05T20:33:42.181Z,100026.40
2024-01-05T20:37:10.505Z,100028.27
2024-01-05T20:40:36.788Z,100041.95
2024-01-05T20:44:03.903Z,100048.48
2024-01-05T20:47:30.344Z,100047.66
2024-01-05T20:50:56.072Z,100049.58
2024-01-05T20:54:22.633Z,100058.15
2024-01-05T20:57:49.510Z,100059.70
2024-01-05T21:01:17.923Z,100065.38
2024-01-05T21:04:45.298Z,100066.16
2024-01-05T21:08:15.567Z,100066.88
2024-01-05T21:11:42.509Z,100054.98
2024-01-05T21:15:12.018Z,100053.46
2024-01-05T21:18:38.195Z,100045.67
2024-01-05T21:22:04.848Z,100043.15
2024-01-05T21:25:34.098Z,100042.70
2024-01-05T21:29:00.486Z,100041.23
2024-01-05T21:32:28.663Z,100031.71
2024-01-05T21:35:54.698Z,100032.27
2024-01-05T21:39:21.002Z,100036.05
2024-01-05T21:42:48.660Z,100036.22
2024-01-05T21:46:15.890Z,100038.09
2024-01-05T21:49:42.257Z,100038.98
2024-01-05T21:53:09.301Z,100039.14
2024-01-05T21:56:36.037Z,100030.94
2024-01-05T22:00:08.132Z,100034.67
2024-01-05T22:03:34.519Z,100030.03
2024-01-05T22:07:02.438Z,100031.71
2024-01-05T22:10:29.396Z,100035.66
2024-01-05T22:13:55.657Z,100039.92
2024-01-05T22:17:23.196Z,100033.63
2024-01-05T22:20:50.183Z,100035.88
2024-01-05T22:24:16.533Z,100039.48
2024-01-05T22:27:42.762Z,100038.05
2024-01-05T22:31:11.741Z,100028.24
2024-01-05T22:34:37.830Z,100019.45
2024-01-05T22:38:05.876Z,100017.08
2024-01-05T22:41:31.640Z,100019.66
2024-01-05T22:44:57.697Z,100022.08
2024-01-05T22:48:29.559Z,100011.05
2024-01-05T22:52:02.443Z,99993.05
2024-01-05T22:55:28.685Z,99996.13
2024-01-05T22:58:54.671Z,100002.25
2024-01-05T23:02:20.932Z,100005.67
2024-01-05T23:05:48.113Z,100009.74
2024-01-05T23:09:14.344Z,100012.66
2024-01-05T23:12:40.808Z,100011.26
2024-01-05T23:16:09.501Z,100009.71
2024-01-05T23:19:37.794Z,100007.47
2024-01-05T23:23:04.385Z,100002.98
2024-01-05T23:26:30.674Z,100005.48
2024-01-05T23:29:57.171Z,100012.91
2024-01-05T23:33:23.357Z,100010.81
2024-01-05T23:36:50.735Z,100004.85
2024-01-05T23:40:17.236Z,100003.29
2024-01-05T23:43:43.404Z,100003.11
2024-01-05T23:47:09.860Z,100000.90
2024-01-05T23:50:35.623Z,99992.55
2024-01-05T23:54:01.981Z,99996.34
2024-01-05T23:57:28.131Z,99993.63
